createdAt,value
2023-03-11T00:01:11.593Z,1.00
2023-03-11T00:03:42.554Z,1.50
2023-03-11T00:06:10.475Z,1.37
2023-03-11T00:08:38.348Z,1.15
2023-03-11T00:11:06.266Z,1.50
2023-03-11T00:13:34.363Z,1.20
2023-03-11T00:16:02.200Z,1.30
2023-03-11T00:18:31.469Z,0.93
2023-03-11T00:21:01.594Z,1.15
2023-03-11T00:23:30.358Z,1.42
2023-03-11T00:25:59.732Z,1.23
2023-03-11T00:28:27.715Z,1.30
2023-03-11T00:30:55.769Z,1.83
2023-03-11T00:33:23.765Z,1.25
2023-03-11T00:35:51.783Z,1.52
2023-03-11T00:38:22.736Z,1.35
2023-03-11T00:40:50.945Z,1.42
2023-03-11T00:43:19.019Z,1.57
2023-03-11T00:45:47.154Z,1.60
2023-03-11T00:48:17.413Z,1.27
2023-03-11T00:50:45.375Z,1.23
2023-03-11T00:53:13.265Z,1.65
2023-03-11T00:55:42.575Z,1.33
2023-03-11T00:58:13.496Z,1.33
2023-03-11T01:00:48.799Z,1.58
2023-03-11T01:03:16.712Z,1.63
2023-03-11T01:05:46.080Z,1.50
2023-03-11T01:08:13.997Z,1.60
2023-03-11T01:10:43.192Z,1.30
2023-03-11T01:13:11.064Z,1.40
2023-03-11T01:15:39.229Z,1.20
2023-03-11T01:18:07.902Z,1.20
2023-03-11T01:20:37.056Z,1.00
2023-03-11T01:23:06.806Z,1.40
2023-03-11T01:25:35.143Z,1.35
2023-03-11T01:28:04.656Z,1.35
2023-03-11T01:30:32.505Z,1.40
2023-03-11T01:33:00.304Z,1.50
2023-03-11T01:35:30.829Z,1.15
2023-03-11T01:37:59.219Z,1.25
2023-03-11T01:40:31.145Z,1.90
2023-03-11T01:43:06.304Z,1.50
2023-03-11T01:45:42.110Z,1.60
2023-03-11T01:48:12.210Z,1.30
2023-03-11T01:50:43.841Z,1.38
2023-03-11T01:53:12.658Z,1.95
2023-03-11T01:55:41.943Z,1.45
2023-03-11T01:58:16.066Z,1.00
2023-03-11T02:00:44.738Z,1.63
2023-03-11T02:03:18.941Z,1.25
2023-03-11T02:05:48.575Z,1.40
2023-03-11T02:08:16.429Z,1.55
2023-03-11T02:10:45.326Z,1.50
2023-03-11T02:13:17.861Z,1.70
2023-03-11T02:15:46.800Z,1.90
2023-03-11T02:18:18.438Z,2.28
2023-03-11T02:20:51.807Z,1.75
2023-03-11T02:23:22.310Z,1.37
2023-03-11T02:25:56.933Z,2.78
2023-03-11T02:28:28.815Z,2.47
2023-03-11T02:30:58.086Z,1.90
2023-03-11T02:33:30.799Z,2.22
2023-03-11T02:35:59.261Z,2.07
2023-03-11T02:38:27.315Z,2.00
2023-03-11T02:40:58.614Z,2.47
2023-03-11T02:43:36.830Z,2.08
2023-03-11T02:46:06.243Z,2.05
2023-03-11T02:48:36.058Z,2.30
2023-03-11T02:51:04.365Z,2.30
2023-03-11T02:53:38.525Z,2.25
2023-03-11T02:56:07.494Z,2.10
2023-03-11T02:58:37.380Z,1.90
2023-03-11T03:01:05.773Z,2.13
2023-03-11T03:03:33.658Z,1.98
2023-03-11T03:06:01.989Z,1.98
2023-03-11T03:08:29.815Z,1.92
2023-03-11T03:10:59.795Z,1.75
2023-03-11T03:13:27.696Z,1.93
2023-03-11T03:15:58.411Z,1.90
2023-03-11T03:18:27.166Z,1.90
2023-03-11T03:20:55.476Z,1.70
2023-03-11T03:23:24.122Z,1.55
2023-03-11T03:25:52.049Z,1.80
2023-03-11T03:28:20.159Z,1.95
2023-03-11T03:30:48.228Z,2.05
2023-03-11T03:33:17.718Z,1.80
2023-03-11T03:35:47.100Z,1.85
2023-03-11T03:38:20.117Z,1.70
2023-03-11T03:40:50.007Z,2.20
2023-03-11T03:43:20.786Z,1.63
2023-03-11T03:45:57.266Z,1.80
2023-03-11T03:48:29.289Z,1.50
2023-03-11T03:50:57.645Z,2.13
2023-03-11T03:53:25.643Z,1.40
2023-03-11T03:55:54.631Z,1.92
2023-03-11T03:58:22.603Z,1.25
2023-03-11T04:00:50.498Z,1.90
2023-03-11T04:03:18.462Z,1.67
2023-03-11T04:05:54.882Z,1.65
2023-03-11T04:08:22.959Z,1.90
2023-03-11T04:10:58.196Z,1.80
2023-03-11T04:13:27.563Z,2.10
2023-03-11T04:15:55.793Z,1.73
2023-03-11T04:18:23.889Z,1.65
2023-03-11T04:20:51.956Z,1.60
2023-03-11T04:23:23.583Z,1.85
2023-03-11T04:25:51.542Z,1.67
2023-03-11T04:28:20.155Z,1.70
2023-03-11T04:30:48.293Z,1.77
2023-03-11T04:33:16.276Z,1.55
2023-03-11T04:35:44.180Z,1.80
2023-03-11T04:38:12.433Z,1.60
2023-03-11T04:40:41.922Z,1.50
2023-03-11T04:43:10.832Z,1.70
2023-03-11T04:45:39.520Z,1.73
2023-03-11T04:48:08.230Z,1.80
2023-03-11T04:50:37.604Z,1.90
2023-03-11T04:53:05.516Z,1.40
2023-03-11T04:55:33.853Z,1.65
2023-03-11T04:58:03.039Z,1.85
2023-03-11T05:00:31.870Z,1.30
2023-03-11T05:03:05.867Z,1.40
2023-03-11T05:05:35.353Z,1.60
2023-03-11T05:08:03.616Z,1.33
2023-03-11T05:10:32.750Z,1.40
2023-03-11T05:13:05.802Z,1.88
2023-03-11T05:15:37.592Z,1.00
2023-03-11T05:18:06.921Z,0.80
2023-03-11T05:20:36.934Z,0.90
2023-03-11T05:23:05.346Z,1.20
2023-03-11T05:25:36.072Z,1.05
2023-03-11T05:28:06.514Z,0.70
2023-03-11T05:30:38.622Z,1.03
2023-03-11T05:33:06.621Z,0.98
2023-03-11T05:35:34.542Z,1.15
2023-03-11T05:38:04.859Z,0.80
2023-03-11T05:40:33.833Z,0.98
2023-03-11T05:43:01.809Z,0.93
2023-03-11T05:45:33.932Z,0.80
2023-03-11T05:48:03.147Z,0.80
2023-03-11T05:50:31.724Z,0.88
2023-03-11T05:53:00.730Z,0.57
2023-03-11T05:55:30.956Z,0.80
2023-03-11T05:57:59.080Z,0.68
2023-03-11T06:00:29.466Z,0.80
2023-03-11T06:03:01.037Z,0.77
2023-03-11T06:05:29.479Z,0.70
2023-03-11T06:07:58.312Z,0.67
2023-03-11T06:10:26.228Z,0.80
2023-03-11T06:12:54.152Z,1.10
2023-03-11T06:15:28.449Z,0.70
2023-03-11T06:17:56.838Z,0.80
2023-03-11T06:20:26.776Z,0.87
2023-03-11T06:22:54.932Z,0.85
2023-03-11T06:25:27.521Z,1.00
2023-03-11T06:27:57.140Z,0.85
2023-03-11T06:30:26.499Z,0.70
2023-03-11T06:33:09.346Z,1.10
2023-03-11T06:35:39.028Z,0.98
2023-03-11T06:38:06.923Z,1.05
2023-03-11T06:40:35.230Z,0.73
2023-03-11T06:43:04.448Z,0.93
2023-03-11T06:45:36.344Z,0.70
2023-03-11T06:48:04.338Z,0.63
2023-03-11T06:50:33.277Z,1.10
2023-03-11T06:53:06.607Z,0.90
2023-03-11T06:55:35.869Z,0.80
2023-03-11T06:58:04.595Z,0.90
2023-03-11T07:00:33.349Z,0.93
2023-03-11T07:03:01.864Z,0.98
2023-03-11T07:05:30.231Z,0.70
2023-03-11T07:08:04.152Z,0.50
2023-03-11T07:10:32.429Z,0.60
2023-03-11T07:13:01.341Z,1.17
2023-03-11T07:15:32.138Z,0.68
2023-03-11T07:18:00.018Z,0.90
2023-03-11T07:20:28.371Z,0.77
2023-03-11T07:22:56.288Z,0.70
2023-03-11T07:25:25.802Z,0.70
2023-03-11T07:27:53.724Z,0.90
2023-03-11T07:30:21.594Z,0.60
2023-03-11T07:32:49.665Z,0.73
2023-03-11T07:35:17.830Z,0.73
2023-03-11T07:37:46.923Z,0.75
2023-03-11T07:40:15.195Z,0.90
2023-03-11T07:42:44.262Z,0.85
2023-03-11T07:45:12.583Z,0.73
2023-03-11T07:47:40.431Z,0.40
2023-03-11T07:50:08.804Z,0.70
2023-03-11T07:52:39.048Z,0.50
2023-03-11T07:55:07.486Z,0.60
2023-03-11T07:57:35.371Z,0.80
2023-03-11T08:00:05.390Z,0.60
2023-03-11T08:02:39.906Z,0.90
2023-03-11T08:05:08.713Z,0.90
2023-03-11T08:07:36.510Z,0.75
2023-03-11T08:10:04.480Z,0.70
2023-03-11T08:12:32.245Z,0.60
2023-03-11T08:15:00.131Z,0.50
2023-03-11T08:17:29.309Z,0.85
2023-03-11T08:19:57.242Z,0.60
2023-03-11T08:22:25.147Z,0.90
2023-03-11T08:24:53.691Z,0.77
2023-03-11T08:27:21.534Z,0.77
2023-03-11T08:29:49.408Z,0.73
2023-03-11T08:32:17.370Z,0.60
2023-03-11T08:34:46.820Z,0.68
2023-03-11T08:37:14.791Z,0.63
2023-03-11T08:39:42.690Z,0.75
2023-03-11T08:42:10.462Z,0.50
2023-03-11T08:44:38.237Z,0.73
2023-03-11T08:47:06.211Z,1.02
2023-03-11T08:49:34.696Z,0.80
2023-03-11T08:52:04.120Z,0.90
2023-03-11T08:54:32.673Z,0.50
2023-03-11T08:57:03.012Z,0.70
2023-03-11T08:59:30.958Z,0.90
2023-03-11T09:01:58.736Z,0.90
2023-03-11T09:04:26.602Z,0.80
2023-03-11T09:06:54.546Z,0.70
2023-03-11T09:09:23.843Z,0.65
2023-03-11T09:11:51.672Z,0.70
2023-03-11T09:14:19.635Z,0.60
2023-03-11T09:16:47.473Z,0.65
2023-03-11T09:19:15.383Z,0.52
2023-03-11T09:21:43.208Z,0.50
2023-03-11T09:24:11.177Z,1.13
2023-03-11T09:26:40.403Z,0.70
2023-03-11T09:29:08.278Z,1.00
2023-03-11T09:31:36.254Z,0.52
2023-03-11T09:34:04.148Z,0.57
2023-03-11T09:36:32.077Z,0.68
2023-03-11T09:38:59.887Z,0.50
2023-03-11T09:41:44.961Z,0.43
2023-03-11T09:44:24.689Z,0.55
2023-03-11T09:47:23.893Z,0.70
2023-03-11T09:50:07.063Z,0.68
2023-03-11T09:52:41.190Z,0.80
2023-03-11T09:55:22.793Z,0.70
2023-03-11T09:57:51.568Z,0.70
2023-03-11T10:00:21.959Z,0.50
2023-03-11T10:02:50.825Z,0.70
2023-03-11T10:05:24.717Z,0.63
2023-03-11T10:07:58.383Z,0.47
2023-03-11T10:10:31.648Z,0.60
2023-03-11T10:13:08.355Z,0.80
2023-03-11T10:15:48.134Z,1.33
2023-03-11T10:18:28.868Z,0.40
2023-03-11T10:21:01.400Z,0.50
2023-03-11T10:23:37.971Z,0.68
2023-03-11T10:26:14.908Z,1.00
2023-03-11T10:28:47.452Z,0.50
2023-03-11T10:31:22.970Z,0.80
2023-03-11T10:33:55.258Z,0.50
2023-03-11T10:36:27.136Z,0.82
2023-03-11T10:38:56.574Z,0.73
2023-03-11T10:41:29.956Z,0.80
2023-03-11T10:44:03.842Z,0.50
2023-03-11T10:46:33.085Z,0.55
2023-03-11T10:49:00.902Z,0.60
2023-03-11T10:51:35.085Z,0.88
2023-03-11T10:54:04.779Z,0.60
2023-03-11T10:56:34.202Z,0.60
2023-03-11T10:59:04.639Z,0.50
2023-03-11T11:01:33.881Z,0.70
2023-03-11T11:04:02.813Z,0.50
2023-03-11T11:06:32.676Z,0.65
2023-03-11T11:09:14.363Z,0.70
2023-03-11T11:11:42.998Z,0.43
2023-03-11T11:14:13.046Z,0.75
2023-03-11T11:16:44.609Z,0.50
2023-03-11T11:19:16.170Z,0.50
2023-03-11T11:21:49.643Z,0.50
2023-03-11T11:24:23.561Z,0.50
2023-03-11T11:27:16.054Z,0.50
2023-03-11T11:29:44.777Z,0.60
2023-03-11T11:32:20.897Z,0.75
2023-03-11T11:35:12.679Z,1.63
2023-03-11T11:37:45.101Z,0.80
2023-03-11T11:40:28.638Z,0.52
2023-03-11T11:43:00.574Z,0.50
2023-03-11T11:45:37.752Z,0.68
2023-03-11T11:48:16.294Z,0.60
2023-03-11T11:50:46.470Z,0.65
2023-03-11T11:53:25.969Z,0.60
2023-03-11T11:55:54.375Z,0.57
2023-03-11T11:58:22.776Z,1.02
2023-03-11T12:01:02.961Z,0.60
2023-03-11T12:04:05.978Z,0.45
2023-03-11T12:06:43.860Z,0.63
2023-03-11T12:09:24.202Z,0.57
2023-03-11T12:11:58.570Z,0.50
2023-03-11T12:14:30.172Z,0.50
2023-03-11T12:17:10.408Z,0.57
2023-03-11T12:19:44.317Z,0.60
2023-03-11T12:22:44.427Z,0.63
2023-03-11T12:25:25.330Z,0.55
2023-03-11T12:28:00.650Z,0.77
2023-03-11T12:30:33.090Z,0.70
2023-03-11T12:33:04.984Z,0.60
2023-03-11T12:35:35.464Z,1.00
2023-03-11T12:38:17.923Z,0.90
2023-03-11T12:41:04.878Z,1.23
2023-03-11T12:44:11.185Z,0.45
2023-03-11T12:47:02.525Z,1.00
2023-03-11T12:49:32.108Z,0.60
2023-03-11T12:52:17.312Z,0.60
2023-03-11T12:54:48.422Z,0.90
2023-03-11T12:57:33.113Z,0.40
2023-03-11T13:00:12.536Z,0.60
2023-03-11T13:02:57.562Z,0.70
2023-03-11T13:05:31.603Z,0.68
2023-03-11T13:08:02.426Z,0.80
2023-03-11T13:10:40.638Z,0.57
2023-03-11T13:13:37.932Z,0.60
2023-03-11T13:16:38.923Z,0.55
2023-03-11T13:19:35.040Z,0.73
2023-03-11T13:22:05.693Z,0.57
2023-03-11T13:24:53.096Z,0.55
2023-03-11T13:27:40.746Z,0.68
2023-03-11T13:30:20.211Z,0.65
2023-03-11T13:33:02.724Z,0.60
2023-03-11T13:35:45.959Z,0.60
2023-03-11T13:38:49.431Z,0.50
2023-03-11T13:41:28.991Z,0.43
2023-03-11T13:44:05.274Z,0.70
2023-03-11T13:46:39.328Z,0.60
2023-03-11T13:49:15.980Z,0.60
2023-03-11T13:51:46.341Z,0.50
2023-03-11T13:54:33.955Z,0.50
2023-03-11T13:57:03.840Z,0.50
2023-03-11T13:59:35.076Z,1.00
2023-03-11T14:02:16.866Z,0.90
2023-03-11T14:04:50.107Z,0.70
2023-03-11T14:07:24.701Z,0.70
2023-03-11T14:09:52.819Z,0.60
2023-03-11T14:12:20.777Z,1.00
2023-03-11T14:14:57.096Z,0.63
2023-03-11T14:17:25.027Z,0.70
2023-03-11T14:20:16.333Z,0.63
2023-03-11T14:22:53.141Z,0.75
2023-03-11T14:25:25.061Z,0.88
2023-03-11T14:27:55.780Z,0.87
2023-03-11T14:30:28.195Z,0.70
2023-03-11T14:32:59.075Z,0.60
2023-03-11T14:35:27.892Z,0.57
2023-03-11T14:37:58.131Z,0.60
2023-03-11T14:40:29.876Z,1.00
2023-03-11T14:43:02.348Z,0.77
2023-03-11T14:45:36.311Z,0.52
2023-03-11T14:48:15.386Z,0.75
2023-03-11T14:50:50.645Z,1.05
2023-03-11T14:53:25.199Z,0.50
2023-03-11T14:55:59.666Z,0.70
2023-03-11T14:58:34.498Z,1.08
2023-03-11T15:01:12.929Z,0.70
2023-03-11T15:03:46.002Z,0.98
2023-03-11T15:06:18.675Z,0.40
2023-03-11T15:08:52.554Z,0.60
2023-03-11T15:11:24.446Z,0.60
2023-03-11T15:13:53.926Z,0.90
2023-03-11T15:16:30.037Z,0.50
2023-03-11T15:19:00.944Z,0.57
2023-03-11T15:21:31.156Z,0.57
2023-03-11T15:24:04.921Z,0.45
2023-03-11T15:26:35.490Z,0.45
2023-03-11T15:29:07.080Z,0.63
2023-03-11T15:31:38.706Z,0.60
2023-03-11T15:34:26.237Z,0.90
2023-03-11T15:37:07.600Z,0.40
2023-03-11T15:39:46.144Z,0.50
2023-03-11T15:42:19.000Z,0.50
2023-03-11T15:45:03.174Z,0.40
2023-03-11T15:47:32.715Z,0.85
2023-03-11T15:50:04.577Z,0.50
2023-03-11T15:52:32.593Z,0.40
2023-03-11T15:55:00.465Z,0.50
2023-03-11T15:57:31.792Z,0.60
2023-03-11T16:00:01.785Z,0.60
2023-03-11T16:02:39.292Z,0.50
2023-03-11T16:05:14.854Z,0.43
2023-03-11T16:07:42.760Z,0.50
2023-03-11T16:10:12.975Z,0.50
2023-03-11T16:12:42.457Z,0.52
2023-03-11T16:15:20.281Z,0.50
2023-03-11T16:17:51.081Z,0.45
2023-03-11T16:20:19.968Z,0.60
2023-03-11T16:22:52.139Z,0.40
2023-03-11T16:25:24.627Z,0.93
2023-03-11T16:27:54.193Z,0.40
2023-03-11T16:30:23.531Z,0.50
2023-03-11T16:32:52.837Z,0.43
2023-03-11T16:35:21.181Z,0.40
2023-03-11T16:37:51.395Z,0.40
2023-03-11T16:40:21.974Z,0.60
2023-03-11T16:42:49.984Z,0.38
2023-03-11T16:45:19.314Z,0.47
2023-03-11T16:47:47.218Z,0.40
2023-03-11T16:50:16.955Z,0.45
2023-03-11T16:52:44.794Z,1.00
2023-03-11T16:55:12.726Z,0.47
2023-03-11T16:57:40.651Z,0.57
2023-03-11T17:00:10.790Z,0.70
2023-03-11T17:02:39.623Z,0.40
2023-03-11T17:05:08.919Z,0.57
2023-03-11T17:07:43.491Z,0.57
2023-03-11T17:10:12.692Z,0.40
2023-03-11T17:12:40.611Z,0.50
2023-03-11T17:15:11.322Z,0.40
2023-03-11T17:17:39.565Z,0.80
2023-03-11T17:20:09.074Z,0.57
2023-03-11T17:22:37.235Z,0.38
2023-03-11T17:25:07.791Z,0.70
2023-03-11T17:27:37.466Z,0.40
2023-03-11T17:30:09.093Z,0.35
2023-03-11T17:32:37.011Z,0.47
2023-03-11T17:35:05.679Z,0.60
2023-03-11T17:37:36.256Z,0.40
2023-03-11T17:40:06.183Z,0.60
2023-03-11T17:42:34.068Z,1.00
2023-03-11T17:45:02.195Z,0.80
2023-03-11T17:47:30.094Z,1.10
2023-03-11T17:49:58.285Z,0.90
2023-03-11T17:52:26.205Z,1.30
2023-03-11T17:54:54.029Z,1.05
2023-03-11T17:57:23.350Z,1.23
2023-03-11T17:59:54.538Z,0.95
2023-03-11T18:02:22.556Z,1.40
2023-03-11T18:04:52.453Z,1.25
2023-03-11T18:07:23.005Z,1.17
2023-03-11T18:09:52.580Z,1.38
2023-03-11T18:12:21.192Z,1.92
2023-03-11T18:14:50.644Z,1.20
2023-03-11T18:17:19.691Z,1.70
2023-03-11T18:19:47.651Z,1.73
2023-03-11T18:22:16.248Z,1.58
2023-03-11T18:24:45.403Z,1.90
2023-03-11T18:27:13.378Z,1.50
2023-03-11T18:29:41.352Z,1.30
2023-03-11T18:32:10.757Z,1.20
2023-03-11T18:34:38.770Z,1.65
2023-03-11T18:37:06.724Z,1.50
2023-03-11T18:39:34.635Z,1.60
2023-03-11T18:42:02.936Z,1.50
2023-03-11T18:44:30.835Z,1.65
2023-03-11T18:46:58.760Z,1.58
2023-03-11T18:49:29.470Z,1.60
2023-03-11T18:51:57.486Z,1.40
2023-03-11T18:54:25.339Z,1.10
2023-03-11T18:56:53.270Z,1.17
2023-03-11T18:59:21.220Z,1.52
2023-03-11T19:01:50.496Z,1.35
2023-03-11T19:04:18.347Z,1.27
2023-03-11T19:06:48.112Z,1.60
2023-03-11T19:09:16.100Z,1.70
2023-03-11T19:11:46.712Z,1.65
2023-03-11T19:14:14.660Z,1.90
2023-03-11T19:16:42.593Z,1.97
2023-03-11T19:19:11.916Z,1.70
2023-03-11T19:21:40.123Z,1.60
2023-03-11T19:24:09.443Z,1.35
2023-03-11T19:26:46.603Z,1.50
2023-03-11T19:29:15.076Z,1.30
2023-03-11T19:31:43.969Z,2.42
2023-03-11T19:34:12.017Z,3.30
2023-03-11T19:36:40.341Z,4.10
2023-03-11T19:39:09.782Z,4.30
2023-03-11T19:41:37.813Z,4.30
2023-03-11T19:44:05.845Z,4.22
2023-03-11T19:46:35.989Z,5.72
2023-03-11T19:49:04.642Z,4.07
2023-03-11T19:51:48.626Z,5.00
2023-03-11T19:54:19.501Z,4.37
2023-03-11T19:56:48.048Z,5.22
2023-03-11T19:59:16.232Z,4.70
2023-03-11T20:01:44.139Z,4.63
2023-03-11T20:04:12.558Z,4.90
2023-03-11T20:06:40.674Z,4.07
2023-03-11T20:09:08.715Z,3.85
2023-03-11T20:11:40.917Z,4.25
2023-03-11T20:14:09.421Z,3.78
2023-03-11T20:16:37.496Z,4.22
2023-03-11T20:19:05.511Z,3.70
2023-03-11T20:21:38.920Z,4.20
2023-03-11T20:24:07.576Z,5.38
2023-03-11T20:26:35.574Z,4.18
2023-03-11T20:29:05.498Z,5.20
2023-03-11T20:31:34.072Z,4.90
2023-03-11T20:34:02.100Z,4.00
2023-03-11T20:36:33.005Z,4.68
2023-03-11T20:39:01.166Z,4.03
2023-03-11T20:41:29.938Z,3.97
2023-03-11T20:43:58.213Z,4.50
2023-03-11T20:46:27.601Z,5.28
2023-03-11T20:48:55.457Z,5.05
2023-03-11T20:51:25.061Z,4.22
2023-03-11T20:53:53.821Z,3.50
2023-03-11T20:56:24.446Z,5.27
2023-03-11T20:58:55.796Z,8.27
2023-03-11T21:01:25.621Z,7.07
2023-03-11T21:03:56.217Z,5.03
2023-03-11T21:06:26.399Z,5.63
2023-03-11T21:08:54.990Z,5.80
2023-03-11T21:11:24.150Z,5.40
2023-03-11T21:13:52.553Z,5.13
2023-03-11T21:16:21.583Z,5.28
2023-03-11T21:18:50.247Z,5.45
2023-03-11T21:21:21.047Z,5.43
2023-03-11T21:23:50.355Z,5.85
2023-03-11T21:26:19.249Z,5.40
2023-03-11T21:28:47.668Z,5.93
2023-03-11T21:31:17.557Z,6.30
2023-03-11T21:33:46.427Z,5.80
2023-03-11T21:36:16.278Z,5.30
2023-03-11T21:38:46.815Z,6.40
2023-03-11T21:41:17.199Z,6.32
2023-03-11T21:43:45.829Z,6.07
2023-03-11T21:46:16.327Z,4.70
2023-03-11T21:48:44.905Z,5.13
2023-03-11T21:51:13.364Z,5.13
2023-03-11T21:53:41.341Z,5.20
2023-03-11T21:56:10.896Z,5.25
2023-03-11T21:58:38.978Z,5.27
2023-03-11T22:01:08.086Z,4.97
2023-03-11T22:03:37.182Z,5.55
2023-03-11T22:06:08.091Z,5.13
2023-03-11T22:08:36.292Z,5.50
2023-03-11T22:11:07.374Z,5.47
2023-03-11T22:13:36.914Z,4.60
2023-03-11T22:16:05.637Z,4.03
2023-03-11T22:18:33.616Z,4.25
2023-03-11T22:21:02.067Z,4.50
2023-03-11T22:23:29.945Z,4.30
2023-03-11T22:26:02.145Z,4.68
2023-03-11T22:28:33.523Z,5.63
2023-03-11T22:31:06.794Z,5.07
2023-03-11T22:33:35.545Z,5.10
2023-03-11T22:36:04.751Z,4.60
2023-03-11T22:38:34.105Z,4.70
2023-03-11T22:41:04.548Z,4.78
2023-03-11T22:43:32.431Z,4.93
2023-03-11T22:46:02.504Z,4.57
2023-03-11T22:48:30.568Z,4.60
2023-03-11T22:51:19.194Z,4.05
2023-03-11T22:53:47.053Z,4.50
2023-03-11T22:56:16.749Z,4.03
2023-03-11T22:58:58.625Z,3.85
2023-03-11T23:01:28.083Z,4.03
2023-03-11T23:03:55.983Z,3.67
2023-03-11T23:06:24.201Z,4.07
2023-03-11T23:08:52.105Z,5.30
2023-03-11T23:11:22.073Z,3.72
2023-03-11T23:13:51.617Z,3.60
2023-03-11T23:16:22.606Z,3.72
2023-03-11T23:18:55.412Z,3.92
2023-03-11T23:21:26.528Z,3.67
2023-03-11T23:23:55.483Z,4.07
2023-03-11T23:26:24.535Z,3.73
2023-03-11T23:28:52.416Z,4.18
2023-03-11T23:31:22.592Z,4.20
2023-03-11T23:33:52.268Z,3.97
2023-03-11T23:36:22.634Z,4.63
2023-03-11T23:38:51.785Z,3.93
2023-03-11T23:41:21.423Z,4.05
2023-03-11T23:43:49.278Z,4.43
2023-03-11T23:46:17.264Z,3.78
2023-03-11T23:48:45.156Z,5.10
2023-03-11T23:51:14.325Z,4.27
2023-03-11T23:53:42.125Z,5.07
2023-03-11T23:56:12.350Z,4.65
2023-03-11T23:58:40.312Z,4.90
